Lucky Maccamp, Wyoming
Current Conditions -  °F | °C
As of 12:53 AM on Thursday 29 Jan 2015 (Local Time) from KLND Reporting Station
Overcast Overcast  
Wind Chill: 37°   Ceiling: 6500
Heat Index: 37°   Visibility: 10mi
Dew Point: 29°   Wind: 3mph
Humidity: 73%   Direction: 220°SW
Pressure: 30.37"   Gusts: NA
Location:  43.1005°N, 108.934°W
Report Text: KLND 290753Z AUTO 22003KT 10SM FEW045 OVC065 03/M02 A3037 RMK AO2 SLP287 T00281017
Loading
Personal Weather Stations






























Interactive Weather Map New forecast layout! Learn more

10-Day Weather Forecast

Advertisements
Track Severe Weather on mobile